createdAt,value
2023-04-18T00:00:39.644Z,18.33
2023-04-18T00:03:06.800Z,22.37
2023-04-18T00:05:33.950Z,21.27
2023-04-18T00:08:00.968Z,22.53
2023-04-18T00:10:27.957Z,22.63
2023-04-18T00:12:55.100Z,22.80
2023-04-18T00:15:22.024Z,21.17
2023-04-18T00:17:48.993Z,20.33
2023-04-18T00:20:16.179Z,20.63
2023-04-18T00:22:44.186Z,22.13
2023-04-18T00:25:11.703Z,23.80
2023-04-18T00:27:39.737Z,20.80
2023-04-18T00:30:08.368Z,25.03
2023-04-18T00:32:35.554Z,25.60
2023-04-18T00:35:02.620Z,23.90
2023-04-18T00:37:30.250Z,25.67
2023-04-18T00:39:57.418Z,24.63
2023-04-18T00:42:28.207Z,24.60
2023-04-18T00:44:55.285Z,26.00
2023-04-18T00:47:22.118Z,24.67
2023-04-18T00:49:49.732Z,24.43
2023-04-18T00:52:18.681Z,22.13
2023-04-18T00:54:47.584Z,23.17
2023-04-18T00:57:15.152Z,23.43
2023-04-18T00:59:42.993Z,22.00
2023-04-18T01:02:09.929Z,23.47
2023-04-18T01:04:37.492Z,23.43
2023-04-18T01:07:04.957Z,22.60
2023-04-18T01:09:32.078Z,21.03
2023-04-18T01:11:59.168Z,23.03
2023-04-18T01:14:26.271Z,22.67
2023-04-18T01:16:53.471Z,23.20
2023-04-18T01:19:20.342Z,23.20
2023-04-18T01:21:47.488Z,22.17
2023-04-18T01:24:15.876Z,23.83
2023-04-18T01:26:45.185Z,22.17
2023-04-18T01:29:12.206Z,22.70
2023-04-18T01:31:40.559Z,21.77
2023-04-18T01:34:08.234Z,22.77
2023-04-18T01:36:36.735Z,23.70
2023-04-18T01:39:03.859Z,25.70
2023-04-18T01:41:33.104Z,24.37
2023-04-18T01:44:00.638Z,23.10
2023-04-18T01:46:28.659Z,24.50
2023-04-18T01:48:56.592Z,24.50
2023-04-18T01:51:23.813Z,22.53
2023-04-18T01:53:51.396Z,25.50
2023-04-18T01:56:18.263Z,24.57
2023-04-18T01:58:45.441Z,24.00
2023-04-18T02:01:12.364Z,26.13
2023-04-18T02:03:39.512Z,22.73
2023-04-18T02:06:06.813Z,24.00
2023-04-18T02:08:36.168Z,23.13
2023-04-18T02:11:03.570Z,23.17
2023-04-18T02:13:31.219Z,24.07
2023-04-18T02:15:58.333Z,23.37
2023-04-18T02:18:26.801Z,27.03
2023-04-18T02:20:53.861Z,21.67
2023-04-18T02:23:20.965Z,23.20
2023-04-18T02:25:47.864Z,23.47
2023-04-18T02:28:14.752Z,25.73
2023-04-18T02:30:43.172Z,22.80
2023-04-18T02:33:10.082Z,26.60
2023-04-18T02:35:37.955Z,22.93
2023-04-18T02:38:04.850Z,25.67
2023-04-18T02:40:31.884Z,24.93
2023-04-18T02:42:58.961Z,27.17
2023-04-18T02:45:25.984Z,21.80
2023-04-18T02:47:55.941Z,25.07
2023-04-18T02:50:24.829Z,25.00
2023-04-18T02:52:51.764Z,24.33
2023-04-18T02:55:19.098Z,25.33
2023-04-18T02:57:46.042Z,24.53
2023-04-18T03:00:13.888Z,23.77
2023-04-18T03:02:41.411Z,23.00
2023-04-18T03:05:09.005Z,25.67
2023-04-18T03:07:35.998Z,22.80
2023-04-18T03:10:03.143Z,23.27
2023-04-18T03:12:30.224Z,21.63
2023-04-18T03:14:57.227Z,21.80
2023-04-18T03:17:24.169Z,23.67
2023-04-18T03:19:50.917Z,24.50
2023-04-18T03:22:18.000Z,24.43
2023-04-18T03:24:45.239Z,21.53
2023-04-18T03:27:13.635Z,25.30
2023-04-18T03:29:43.544Z,20.10
2023-04-18T03:32:10.850Z,20.43
2023-04-18T03:34:38.055Z,23.80
2023-04-18T03:37:04.892Z,21.07
2023-04-18T03:39:31.654Z,22.33
2023-04-18T03:41:58.675Z,24.23
2023-04-18T03:44:25.916Z,21.70
2023-04-18T03:46:52.919Z,25.30
2023-04-18T03:49:20.054Z,22.60
2023-04-18T03:51:48.170Z,22.77
2023-04-18T03:54:16.381Z,23.97
2023-04-18T03:56:44.415Z,19.47
2023-04-18T03:59:12.060Z,24.70
2023-04-18T04:01:39.179Z,25.23
2023-04-18T04:04:06.408Z,22.97
2023-04-18T04:06:33.532Z,23.13
2023-04-18T04:09:01.057Z,23.73
2023-04-18T04:11:27.910Z,25.40
2023-04-18T04:13:54.799Z,25.17
2023-04-18T04:16:21.969Z,23.90
2023-04-18T04:18:49.032Z,24.10
2023-04-18T04:21:16.029Z,23.67
2023-04-18T04:23:43.029Z,25.77
2023-04-18T04:26:10.261Z,24.57
2023-04-18T04:28:37.448Z,27.07
2023-04-18T04:31:08.626Z,28.90
2023-04-18T04:33:36.134Z,22.70
2023-04-18T04:36:03.057Z,25.07
2023-04-18T04:38:31.315Z,22.37
2023-04-18T04:40:58.756Z,23.07
2023-04-18T04:43:26.322Z,25.03
2023-04-18T04:45:53.777Z,25.60
2023-04-18T04:48:22.475Z,25.67
2023-04-18T04:50:56.849Z,25.50
2023-04-18T04:53:25.748Z,25.33
2023-04-18T04:55:52.913Z,20.20
2023-04-18T04:58:20.624Z,18.53
2023-04-18T05:00:48.326Z,20.00
2023-04-18T05:03:15.462Z,21.30
2023-04-18T05:05:42.903Z,15.20
2023-04-18T05:08:09.705Z,17.57
2023-04-18T05:10:37.434Z,17.57
2023-04-18T05:13:04.399Z,14.77
2023-04-18T05:15:31.914Z,15.33
2023-04-18T05:18:02.024Z,13.60
2023-04-18T05:20:28.960Z,16.33
2023-04-18T05:22:56.105Z,13.83
2023-04-18T05:25:23.121Z,13.67
2023-04-18T05:27:51.063Z,12.33
2023-04-18T05:30:18.448Z,13.37
2023-04-18T05:32:45.616Z,13.50
2023-04-18T05:35:12.728Z,16.10
2023-04-18T05:37:39.745Z,12.73
2023-04-18T05:40:09.212Z,21.30
2023-04-18T05:42:36.156Z,15.80
2023-04-18T05:45:03.576Z,15.83
2023-04-18T05:47:30.625Z,13.47
2023-04-18T05:49:57.908Z,17.97
2023-04-18T05:52:26.449Z,12.70
2023-04-18T05:54:53.654Z,14.00
2023-04-18T05:57:20.998Z,13.27
2023-04-18T05:59:48.048Z,15.00
2023-04-18T06:02:15.052Z,12.70
2023-04-18T06:04:43.164Z,12.30
2023-04-18T06:07:10.402Z,11.93
2023-04-18T06:09:37.595Z,12.07
2023-04-18T06:12:04.743Z,13.93
2023-04-18T06:14:31.733Z,15.53
2023-04-18T06:16:59.321Z,11.53
2023-04-18T06:19:26.378Z,10.30
2023-04-18T06:21:53.513Z,11.90
2023-04-18T06:24:20.877Z,11.67
2023-04-18T06:26:47.865Z,11.00
2023-04-18T06:29:15.019Z,10.57
2023-04-18T06:31:42.384Z,11.17
2023-04-18T06:34:09.639Z,12.77
2023-04-18T06:36:36.472Z,13.60
2023-04-18T06:39:03.627Z,11.17
2023-04-18T06:41:31.556Z,12.50
2023-04-18T06:46:28.667Z,11.37
2023-04-18T06:48:55.786Z,12.93
2023-04-18T06:51:22.772Z,12.70
2023-04-18T06:53:52.931Z,14.93
2023-04-18T06:56:23.193Z,11.97
2023-04-18T06:58:50.415Z,16.07
2023-04-18T07:01:17.500Z,13.23
2023-04-18T07:03:44.857Z,13.27
2023-04-18T07:06:12.239Z,16.33
2023-04-18T07:08:39.186Z,16.33
2023-04-18T07:11:06.875Z,12.73
2023-04-18T07:13:33.961Z,15.27
2023-04-18T07:16:01.750Z,11.17
2023-04-18T07:18:37.313Z,17.50
2023-04-18T07:21:07.948Z,15.27
2023-04-18T07:23:35.359Z,13.23
2023-04-18T07:26:03.330Z,10.57
2023-04-18T07:28:31.954Z,14.03
2023-04-18T07:30:59.346Z,12.93
2023-04-18T07:33:26.344Z,12.10
2023-04-18T07:35:53.347Z,12.97
2023-04-18T07:38:20.844Z,13.77
2023-04-18T07:40:47.777Z,12.07
2023-04-18T07:43:15.379Z,10.30
2023-04-18T07:45:43.479Z,12.27
2023-04-18T07:48:11.494Z,9.30
2023-04-18T07:50:38.450Z,10.00
2023-04-18T07:53:05.268Z,9.13
2023-04-18T07:55:32.255Z,12.80
2023-04-18T07:57:59.185Z,13.10
2023-04-18T08:00:26.648Z,9.00
2023-04-18T08:02:53.865Z,8.17
2023-04-18T08:05:21.050Z,10.13
2023-04-18T08:07:47.903Z,10.67
2023-04-18T08:10:14.985Z,12.83
2023-04-18T08:12:42.609Z,9.80
2023-04-18T08:15:10.106Z,11.20
2023-04-18T08:17:39.070Z,12.67
2023-04-18T08:20:06.858Z,10.60
2023-04-18T08:22:33.808Z,9.30
2023-04-18T08:25:05.411Z,11.90
2023-04-18T08:27:33.273Z,12.67
2023-04-18T08:30:00.875Z,12.90
2023-04-18T08:32:27.943Z,10.47
2023-04-18T08:34:56.263Z,11.97
2023-04-18T08:37:23.426Z,14.03
2023-04-18T08:39:50.528Z,10.03
2023-04-18T08:42:21.680Z,10.87
2023-04-18T08:44:48.990Z,10.43
2023-04-18T08:47:16.743Z,10.60
2023-04-18T08:49:47.323Z,10.10
2023-04-18T08:52:17.079Z,11.00
2023-04-18T08:54:46.968Z,10.57
2023-04-18T08:57:23.899Z,12.50
2023-04-18T08:59:51.334Z,9.60
2023-04-18T09:02:19.548Z,10.93
2023-04-18T09:04:49.741Z,12.23
2023-04-18T09:07:17.520Z,13.30
2023-04-18T09:09:50.305Z,11.67
2023-04-18T09:12:25.583Z,15.37
2023-04-18T09:14:58.035Z,15.43
2023-04-18T09:17:42.747Z,14.20
2023-04-18T09:20:11.251Z,11.27
2023-04-18T09:22:58.163Z,12.87
2023-04-18T09:25:45.351Z,12.00
2023-04-18T09:28:29.101Z,10.33
2023-04-18T09:30:57.809Z,10.80
2023-04-18T09:33:35.022Z,14.33
2023-04-18T09:36:25.215Z,11.33
2023-04-18T09:38:56.274Z,11.30
2023-04-18T09:41:23.986Z,12.63
2023-04-18T09:44:08.018Z,14.73
2023-04-18T09:46:34.955Z,14.23
2023-04-18T09:49:02.419Z,13.33
2023-04-18T09:51:31.797Z,14.47
2023-04-18T09:53:59.380Z,15.23
2023-04-18T09:56:29.889Z,11.10
2023-04-18T09:59:06.560Z,10.30
2023-04-18T10:01:35.026Z,9.70
2023-04-18T10:04:04.627Z,12.27
2023-04-18T10:06:34.213Z,9.77
2023-04-18T10:09:04.517Z,10.93
2023-04-18T10:11:32.395Z,11.67
2023-04-18T10:14:04.785Z,9.23
2023-04-18T10:16:34.096Z,10.60
2023-04-18T10:19:26.899Z,11.63
2023-04-18T10:21:55.399Z,8.73
2023-04-18T10:24:48.383Z,8.63
2023-04-18T10:27:18.977Z,8.33
2023-04-18T10:29:53.305Z,10.27
2023-04-18T10:32:23.486Z,9.40
2023-04-18T10:34:53.782Z,11.73
2023-04-18T10:37:20.803Z,9.77
2023-04-18T10:39:50.832Z,9.20
2023-04-18T10:42:17.881Z,9.53
2023-04-18T10:45:37.323Z,11.80
2023-04-18T10:48:27.414Z,11.50
2023-04-18T10:51:16.927Z,10.30
2023-04-18T10:53:54.282Z,9.67
2023-04-18T10:56:21.226Z,8.83
2023-04-18T10:58:53.199Z,8.93
2023-04-18T11:01:31.743Z,8.83
2023-04-18T11:04:00.655Z,8.70
2023-04-18T11:06:28.348Z,9.43
2023-04-18T11:09:12.633Z,10.27
2023-04-18T11:11:40.488Z,11.23
2023-04-18T11:14:07.697Z,10.23
2023-04-18T11:16:35.331Z,11.50
2023-04-18T11:19:23.094Z,10.73
2023-04-18T11:21:51.523Z,13.40
2023-04-18T11:24:24.668Z,12.87
2023-04-18T11:26:56.300Z,9.53
2023-04-18T11:29:23.574Z,11.20
2023-04-18T11:31:56.682Z,13.70
2023-04-18T11:34:30.764Z,10.60
2023-04-18T11:36:58.137Z,12.77
2023-04-18T11:39:25.207Z,22.57
2023-04-18T11:41:52.215Z,19.47
2023-04-18T11:44:24.195Z,10.97
2023-04-18T11:46:51.741Z,14.13
2023-04-18T11:49:46.238Z,9.73
2023-04-18T11:52:14.871Z,14.63
2023-04-18T11:54:45.808Z,12.30
2023-04-18T11:57:27.128Z,11.00
2023-04-18T11:59:59.757Z,9.77
2023-04-18T12:02:39.286Z,8.97
2023-04-18T12:05:07.098Z,8.10
2023-04-18T12:07:51.946Z,11.33
2023-04-18T12:10:27.886Z,7.87
2023-04-18T12:12:59.151Z,7.57
2023-04-18T12:15:28.982Z,7.20
2023-04-18T12:18:05.162Z,10.47
2023-04-18T12:20:36.655Z,6.67
2023-04-18T12:23:04.817Z,6.70
2023-04-18T12:25:32.192Z,7.17
2023-04-18T12:28:04.293Z,8.20
2023-04-18T12:30:37.596Z,14.70
2023-04-18T12:33:09.331Z,86.63
2023-04-18T12:35:36.835Z,33.27
2023-04-18T12:38:04.915Z,19.37
2023-04-18T12:40:32.036Z,9.70
2023-04-18T12:43:00.085Z,15.37
2023-04-18T12:45:28.100Z,6.60
2023-04-18T12:47:55.134Z,6.77
2023-04-18T12:50:24.764Z,31.30
2023-04-18T12:52:54.903Z,7.17
2023-04-18T12:55:22.955Z,7.17
2023-04-18T12:57:52.133Z,6.67
2023-04-18T13:00:19.843Z,6.23
2023-04-18T13:02:47.069Z,6.10
2023-04-18T13:05:15.937Z,6.03
2023-04-18T13:07:44.147Z,6.40
2023-04-18T13:10:13.479Z,5.63
2023-04-18T13:12:41.726Z,6.33
2023-04-18T13:15:09.942Z,9.20
2023-04-18T13:17:37.603Z,19.47
2023-04-18T13:20:07.069Z,20.00
2023-04-18T13:22:34.581Z,7.77
2023-04-18T13:25:01.540Z,9.07
2023-04-18T13:27:29.008Z,6.27
2023-04-18T13:29:56.406Z,5.27
2023-04-18T13:32:23.811Z,4.63
2023-04-18T13:34:50.912Z,4.90
2023-04-18T13:37:18.063Z,7.50
2023-04-18T13:39:45.143Z,16.43
2023-04-18T13:42:13.531Z,6.43
2023-04-18T13:44:42.374Z,5.17
2023-04-18T13:47:09.535Z,4.50
2023-04-18T13:49:36.812Z,4.40
2023-04-18T13:52:04.608Z,4.23
2023-04-18T13:54:33.088Z,4.03
2023-04-18T13:57:06.020Z,4.70
2023-04-18T13:59:33.002Z,3.73
2023-04-18T14:02:00.251Z,4.83
2023-04-18T14:04:27.693Z,6.53
2023-04-18T14:06:55.337Z,5.10
2023-04-18T14:09:22.353Z,3.87
2023-04-18T14:11:49.562Z,5.43
2023-04-18T14:14:16.708Z,4.70
2023-04-18T14:16:43.690Z,4.83
2023-04-18T14:19:10.580Z,5.73
2023-04-18T14:21:37.581Z,3.73
2023-04-18T14:24:06.015Z,5.53
2023-04-18T14:26:32.875Z,6.07
2023-04-18T14:29:00.741Z,3.17
2023-04-18T14:31:28.530Z,8.30
2023-04-18T14:33:55.452Z,4.57
2023-04-18T14:36:22.372Z,3.10
2023-04-18T14:38:50.498Z,4.07
2023-04-18T14:41:17.481Z,2.57
2023-04-18T14:43:44.731Z,3.43
2023-04-18T14:46:13.513Z,4.00
2023-04-18T14:48:40.666Z,4.60
2023-04-18T14:51:08.142Z,3.77
2023-04-18T14:53:35.557Z,3.97
2023-04-18T14:56:02.484Z,4.90
2023-04-18T14:58:29.456Z,3.27
2023-04-18T15:00:56.827Z,3.97
2023-04-18T15:03:23.823Z,4.07
2023-04-18T15:05:53.203Z,6.20
2023-04-18T15:08:20.113Z,4.17
2023-04-18T15:10:47.730Z,5.20
2023-04-18T15:13:14.902Z,5.17
2023-04-18T15:15:42.379Z,4.17
2023-04-18T15:18:10.596Z,3.37
2023-04-18T15:20:37.887Z,3.30
2023-04-18T15:23:04.854Z,3.40
2023-04-18T15:25:31.879Z,3.83
2023-04-18T15:27:58.997Z,5.23
2023-04-18T15:30:26.236Z,3.30
2023-04-18T15:32:54.247Z,6.37
2023-04-18T15:35:21.344Z,6.10
2023-04-18T15:37:49.635Z,4.67
2023-04-18T15:40:18.390Z,3.60
2023-04-18T15:42:46.450Z,3.40
2023-04-18T15:45:13.534Z,4.43
2023-04-18T15:47:41.513Z,3.50
2023-04-18T15:50:11.618Z,4.40
2023-04-18T15:52:41.097Z,2.70
2023-04-18T15:55:10.328Z,2.90
2023-04-18T15:57:37.690Z,3.20
2023-04-18T16:00:26.682Z,2.97
2023-04-18T16:02:53.569Z,3.80
2023-04-18T16:05:20.524Z,4.87
2023-04-18T16:07:47.453Z,3.23
2023-04-18T16:10:15.508Z,5.60
2023-04-18T16:12:42.626Z,3.83
2023-04-18T16:15:11.457Z,3.80
2023-04-18T16:17:39.178Z,3.87
2023-04-18T16:20:08.648Z,4.53
2023-04-18T16:22:35.630Z,3.63
2023-04-18T16:25:06.430Z,5.17
2023-04-18T16:27:33.646Z,4.30
2023-04-18T16:30:00.574Z,5.17
2023-04-18T16:32:27.563Z,4.70
2023-04-18T16:34:54.419Z,3.70
2023-04-18T16:37:21.546Z,3.97
2023-04-18T16:39:48.646Z,4.37
2023-04-18T16:42:16.751Z,4.77
2023-04-18T16:44:45.545Z,5.03
2023-04-18T16:47:12.438Z,8.47
2023-04-18T16:49:39.270Z,4.83
2023-04-18T16:52:06.157Z,5.87
2023-04-18T16:54:33.230Z,3.97
2023-04-18T16:57:00.048Z,3.77
2023-04-18T16:59:26.996Z,4.77
2023-04-18T17:01:54.071Z,4.60
2023-04-18T17:04:22.059Z,3.57
2023-04-18T17:06:51.482Z,3.33
2023-04-18T17:09:19.885Z,3.30
2023-04-18T17:11:47.179Z,5.40
2023-04-18T17:14:14.434Z,4.10
2023-04-18T17:16:42.612Z,3.10
2023-04-18T17:19:10.267Z,2.77
2023-04-18T17:21:38.049Z,3.00
2023-04-18T17:24:07.170Z,2.70
2023-04-18T17:26:35.196Z,3.90
2023-04-18T17:29:04.449Z,3.30
2023-04-18T17:31:32.282Z,3.03
2023-04-18T17:34:00.360Z,3.63
2023-04-18T17:36:27.523Z,3.97
2023-04-18T17:38:54.528Z,3.70
2023-04-18T17:41:22.078Z,3.43
2023-04-18T17:43:53.896Z,3.40
2023-04-18T17:46:21.253Z,4.30
2023-04-18T17:48:48.558Z,4.53
2023-04-18T17:51:19.605Z,5.17
2023-04-18T17:53:47.227Z,4.83
2023-04-18T17:56:14.756Z,3.77
2023-04-18T17:58:41.593Z,7.17
2023-04-18T18:01:15.856Z,5.23
2023-04-18T18:03:44.152Z,5.37
2023-04-18T18:06:15.083Z,3.90
2023-04-18T18:08:43.605Z,5.70
2023-04-18T18:11:11.073Z,6.13
2023-04-18T18:13:39.405Z,5.67
2023-04-18T18:16:06.833Z,6.27
2023-04-18T18:18:33.972Z,5.50
2023-04-18T18:21:01.116Z,5.60
2023-04-18T18:23:30.440Z,7.37
2023-04-18T18:25:57.440Z,6.53
2023-04-18T18:28:24.274Z,8.83
2023-04-18T18:30:51.375Z,6.33
2023-04-18T18:33:18.436Z,6.27
2023-04-18T18:35:45.226Z,7.70
2023-04-18T18:38:12.259Z,6.90
2023-04-18T18:40:39.318Z,7.10
2023-04-18T18:43:06.381Z,6.63
2023-04-18T18:45:33.511Z,9.03
2023-04-18T18:48:00.708Z,7.40
2023-04-18T18:50:31.287Z,9.97
2023-04-18T18:52:58.242Z,9.23
2023-04-18T18:55:25.461Z,9.60
2023-04-18T18:57:52.407Z,8.23
2023-04-18T19:00:19.667Z,8.20
2023-04-18T19:02:46.716Z,11.23
2023-04-18T19:05:13.815Z,15.27
2023-04-18T19:07:43.759Z,9.47
2023-04-18T19:10:11.147Z,9.93
2023-04-18T19:12:38.498Z,9.27
2023-04-18T19:15:06.245Z,11.47
2023-04-18T19:17:33.167Z,11.33
2023-04-18T19:20:01.974Z,11.60
2023-04-18T19:22:29.604Z,10.30
2023-04-18T19:24:56.677Z,11.40
2023-04-18T19:27:23.643Z,9.63
2023-04-18T19:29:50.859Z,12.10
2023-04-18T19:32:17.947Z,13.90
2023-04-18T19:34:44.983Z,13.33
2023-04-18T19:37:11.854Z,10.33
2023-04-18T19:39:38.835Z,11.17
2023-04-18T19:42:05.876Z,9.53
2023-04-18T19:44:33.496Z,12.40
2023-04-18T19:47:00.719Z,14.47
2023-04-18T19:49:27.631Z,12.30
2023-04-18T19:51:54.926Z,10.53
2023-04-18T19:54:22.056Z,13.00
2023-04-18T19:56:49.311Z,14.33
2023-04-18T19:59:16.510Z,15.10
2023-04-18T20:01:43.600Z,11.67
2023-04-18T20:04:10.812Z,9.77
2023-04-18T20:06:37.968Z,10.67
2023-04-18T20:09:05.846Z,11.17
2023-04-18T20:11:32.643Z,13.87
2023-04-18T20:13:59.522Z,11.27
2023-04-18T20:16:26.427Z,13.17
2023-04-18T20:18:55.022Z,11.83
2023-04-18T20:21:22.046Z,11.93
2023-04-18T20:23:48.938Z,16.63
2023-04-18T20:26:15.923Z,13.20
2023-04-18T20:28:43.002Z,14.27
2023-04-18T20:31:12.165Z,12.27
2023-04-18T20:33:39.062Z,11.30
2023-04-18T20:36:08.950Z,14.30
2023-04-18T20:38:37.288Z,12.43
2023-04-18T20:41:04.433Z,11.80
2023-04-18T20:43:37.496Z,12.50
2023-04-18T20:46:04.631Z,16.60
2023-04-18T20:48:31.544Z,15.63
2023-04-18T20:50:58.532Z,15.40
2023-04-18T20:53:27.349Z,15.47
2023-04-18T20:55:54.313Z,13.43
2023-04-18T20:58:21.314Z,13.17
2023-04-18T21:00:49.063Z,14.30
2023-04-18T21:03:17.233Z,13.03
2023-04-18T21:05:45.221Z,15.90
2023-04-18T21:08:13.692Z,12.63
2023-04-18T21:10:40.947Z,12.83
2023-04-18T21:13:09.414Z,11.20
2023-04-18T21:15:36.685Z,12.73
2023-04-18T21:18:03.905Z,11.10
2023-04-18T21:20:30.942Z,13.13
2023-04-18T21:22:58.109Z,14.37
2023-04-18T21:25:24.964Z,11.00
2023-04-18T21:27:52.208Z,11.93
2023-04-18T21:30:19.164Z,11.97
2023-04-18T21:32:47.333Z,13.13
2023-04-18T21:35:16.096Z,12.13
2023-04-18T21:37:44.274Z,12.97
2023-04-18T21:40:11.353Z,11.97
2023-04-18T21:42:38.358Z,10.87
2023-04-18T21:45:06.493Z,15.27
2023-04-18T21:47:33.479Z,10.37
2023-04-18T21:50:00.505Z,11.40
2023-04-18T21:52:27.504Z,16.80
2023-04-18T21:54:54.557Z,12.07
2023-04-18T21:57:21.471Z,11.10
2023-04-18T21:59:48.487Z,14.33
2023-04-18T22:02:15.705Z,8.97
2023-04-18T22:04:45.490Z,10.57
2023-04-18T22:07:12.738Z,10.13
2023-04-18T22:09:40.089Z,11.90
2023-04-18T22:12:07.062Z,9.63
2023-04-18T22:14:34.487Z,11.17
2023-04-18T22:17:03.657Z,9.10
2023-04-18T22:19:31.506Z,10.00
2023-04-18T22:21:58.761Z,11.57
2023-04-18T22:24:27.781Z,10.60
2023-04-18T22:26:54.758Z,13.37
2023-04-18T22:29:21.605Z,12.37
2023-04-18T22:31:48.504Z,11.43
2023-04-18T22:34:15.884Z,11.03
2023-04-18T22:36:43.998Z,10.70
2023-04-18T22:39:12.334Z,12.30
2023-04-18T22:41:39.250Z,11.57
2023-04-18T22:44:06.208Z,11.60
2023-04-18T22:46:33.347Z,11.33
2023-04-18T22:49:00.800Z,15.43
2023-04-18T22:51:29.015Z,14.07
2023-04-18T22:53:56.657Z,15.03
2023-04-18T22:56:26.741Z,11.70
2023-04-18T22:58:53.688Z,11.50
2023-04-18T23:01:20.805Z,14.50
2023-04-18T23:03:48.090Z,10.23
2023-04-18T23:06:15.158Z,12.23
2023-04-18T23:08:42.343Z,11.63
2023-04-18T23:11:10.952Z,11.43
2023-04-18T23:13:37.956Z,10.63
2023-04-18T23:16:05.135Z,11.37
2023-04-18T23:18:32.216Z,9.60
2023-04-18T23:21:00.342Z,10.83
2023-04-18T23:23:27.430Z,12.47
2023-04-18T23:25:54.359Z,10.57
2023-04-18T23:28:21.390Z,13.63
2023-04-18T23:30:50.478Z,10.87
2023-04-18T23:33:17.259Z,11.13
2023-04-18T23:35:44.246Z,10.60
2023-04-18T23:38:11.505Z,10.03
2023-04-18T23:40:41.355Z,9.10
2023-04-18T23:43:08.238Z,13.80
2023-04-18T23:45:36.732Z,9.43
2023-04-18T23:48:03.859Z,12.93
2023-04-18T23:50:31.011Z,10.83
2023-04-18T23:52:57.934Z,9.03
2023-04-18T23:55:24.858Z,10.53
2023-04-18T23:57:51.706Z,10.37
